sensor_id;sensor_type;location;lat;lon;timestamp;noise_LAeq;noise_LA_min;noise_LA_max;noise_LA01;noise_LA95
70077;Laerm;57448;51.490;5.436;2024-03-25T00:00:23;39.80;35.49;43.76;;
70077;Laerm;57448;51.490;5.436;2024-03-25T00:02:50;40.23;34.77;46.38;;
70077;Laerm;57448;51.490;5.436;2024-03-25T00:05:15;39.35;34.37;49.02;;
70077;Laerm;57448;51.490;5.436;2024-03-25T00:07:47;39.21;34.83;42.84;;
70077;Laerm;57448;51.490;5.436;2024-03-25T00:10:12;38.61;34.45;45.45;;
70077;Laerm;57448;51.490;5.436;2024-03-25T00:12:38;39.37;35.09;43.20;;
70077;Laerm;57448;51.490;5.436;2024-03-25T00:15:03;40.40;37.09;44.82;;
70077;Laerm;57448;51.490;5.436;2024-03-25T00:17:29;39.22;34.70;47.25;;
70077;Laerm;57448;51.490;5.436;2024-03-25T00:19:54;38.76;35.30;44.46;;
70077;Laerm;57448;51.490;5.436;2024-03-25T00:22:20;39.46;35.67;45.22;;
70077;Laerm;57448;51.490;5.436;2024-03-25T00:24:46;42.93;34.71;60.75;;
70077;Laerm;57448;51.490;5.436;2024-03-25T00:27:12;38.69;34.63;48.93;;
70077;Laerm;57448;51.490;5.436;2024-03-25T00:29:37;41.26;36.51;47.62;;
70077;Laerm;57448;51.490;5.436;2024-03-25T00:32:02;41.13;36.85;46.16;;
70077;Laerm;57448;51.490;5.436;2024-03-25T00:34:28;38.64;33.50;43.98;;
70077;Laerm;57448;51.490;5.436;2024-03-25T00:36:53;39.07;34.57;46.29;;
70077;Laerm;57448;51.490;5.436;2024-03-25T00:39:19;38.52;34.64;45.90;;
70077;Laerm;57448;51.490;5.436;2024-03-25T00:41:44;38.35;34.34;44.12;;
70077;Laerm;57448;51.490;5.436;2024-03-25T00:44:10;38.45;34.53;44.28;;
70077;Laerm;57448;51.490;5.436;2024-03-25T00:46:35;38.70;33.30;45.70;;
70077;Laerm;57448;51.490;5.436;2024-03-25T00:49:00;37.69;33.16;43.06;;
70077;Laerm;57448;51.490;5.436;2024-03-25T00:51:26;38.81;35.51;45.23;;
70077;Laerm;57448;51.490;5.436;2024-03-25T00:53:51;38.77;35.17;43.67;;
70077;Laerm;57448;51.490;5.436;2024-03-25T00:56:17;41.15;36.91;47.73;;
70077;Laerm;57448;51.490;5.436;2024-03-25T00:58:42;40.68;36.83;46.59;;
70077;Laerm;57448;51.490;5.436;2024-03-25T01:01:08;37.60;33.48;45.38;;
70077;Laerm;57448;51.490;5.436;2024-03-25T01:03:33;37.28;33.51;40.82;;
70077;Laerm;57448;51.490;5.436;2024-03-25T01:05:59;38.35;33.41;46.59;;
70077;Laerm;57448;51.490;5.436;2024-03-25T01:08:24;38.02;34.13;47.41;;
70077;Laerm;57448;51.490;5.436;2024-03-25T01:10:50;38.12;35.16;44.29;;
70077;Laerm;57448;51.490;5.436;2024-03-25T01:13:15;38.89;34.80;43.24;;
70077;Laerm;57448;51.490;5.436;2024-03-25T01:15:41;37.48;33.47;46.82;;
70077;Laerm;57448;51.490;5.436;2024-03-25T01:18:07;37.74;34.24;42.85;;
70077;Laerm;57448;51.490;5.436;2024-03-25T01:20:33;37.18;32.74;44.29;;
70077;Laerm;57448;51.490;5.436;2024-03-25T01:22:58;36.85;32.97;43.74;;
70077;Laerm;57448;51.490;5.436;2024-03-25T01:25:24;38.82;35.65;42.49;;
70077;Laerm;57448;51.490;5.436;2024-03-25T01:27:50;37.07;33.95;41.41;;
70077;Laerm;57448;51.490;5.436;2024-03-25T01:30:16;37.36;33.50;46.50;;
70077;Laerm;57448;51.490;5.436;2024-03-25T01:32:43;38.00;33.78;44.80;;
70077;Laerm;57448;51.490;5.436;2024-03-25T01:35:09;40.88;37.92;45.74;;
70077;Laerm;57448;51.490;5.436;2024-03-25T01:37:35;38.66;34.27;45.74;;
70077;Laerm;57448;51.490;5.436;2024-03-25T01:40:00;39.99;36.27;46.54;;
70077;Laerm;57448;51.490;5.436;2024-03-25T01:42:25;37.10;33.00;43.19;;
70077;Laerm;57448;51.490;5.436;2024-03-25T01:44:52;38.35;33.63;45.31;;
70077;Laerm;57448;51.490;5.436;2024-03-25T01:47:17;40.59;36.75;45.78;;
70077;Laerm;57448;51.490;5.436;2024-03-25T01:49:42;41.73;37.70;55.06;;
70077;Laerm;57448;51.490;5.436;2024-03-25T01:52:08;39.45;34.23;48.46;;
70077;Laerm;57448;51.490;5.436;2024-03-25T01:54:34;41.08;35.63;46.48;;
70077;Laerm;57448;51.490;5.436;2024-03-25T01:56:59;38.53;33.42;43.57;;
70077;Laerm;57448;51.490;5.436;2024-03-25T01:59:25;39.25;34.79;44.76;;
70077;Laerm;57448;51.490;5.436;2024-03-25T02:01:50;39.82;36.20;47.01;;
70077;Laerm;57448;51.490;5.436;2024-03-25T02:04:15;38.70;34.65;43.17;;
70077;Laerm;57448;51.490;5.436;2024-03-25T02:06:41;40.53;36.06;46.87;;
70077;Laerm;57448;51.490;5.436;2024-03-25T02:09:07;39.26;34.65;45.07;;
70077;Laerm;57448;51.490;5.436;2024-03-25T02:11:34;39.50;35.97;45.48;;
70077;Laerm;57448;51.490;5.436;2024-03-25T02:13:59;38.64;34.47;43.83;;
70077;Laerm;57448;51.490;5.436;2024-03-25T02:16:25;38.97;35.14;47.35;;
70077;Laerm;57448;51.490;5.436;2024-03-25T02:18:50;38.24;33.56;43.02;;
70077;Laerm;57448;51.490;5.436;2024-03-25T02:21:16;38.97;35.96;46.10;;
70077;Laerm;57448;51.490;5.436;2024-03-25T02:23:42;39.43;35.18;43.74;;
70077;Laerm;57448;51.490;5.436;2024-03-25T02:26:07;40.73;37.02;45.61;;
70077;Laerm;57448;51.490;5.436;2024-03-25T02:28:33;41.08;36.48;46.57;;
70077;Laerm;57448;51.490;5.436;2024-03-25T02:30:58;40.36;36.76;46.50;;
70077;Laerm;57448;51.490;5.436;2024-03-25T02:33:23;40.96;35.17;51.20;;
70077;Laerm;57448;51.490;5.436;2024-03-25T02:35:49;40.71;37.15;47.83;;
70077;Laerm;57448;51.490;5.436;2024-03-25T02:38:14;41.46;36.30;46.53;;
70077;Laerm;57448;51.490;5.436;2024-03-25T02:40:42;39.66;35.06;46.16;;
70077;Laerm;57448;51.490;5.436;2024-03-25T02:43:09;39.64;33.89;44.38;;
70077;Laerm;57448;51.490;5.436;2024-03-25T02:45:35;38.79;34.66;51.72;;
70077;Laerm;57448;51.490;5.436;2024-03-25T02:48:00;40.86;35.69;46.66;;
70077;Laerm;57448;51.490;5.436;2024-03-25T02:50:26;39.46;35.75;44.66;;
70077;Laerm;57448;51.490;5.436;2024-03-25T02:52:52;40.39;35.42;45.74;;
70077;Laerm;57448;51.490;5.436;2024-03-25T02:55:17;42.27;37.27;48.28;;
70077;Laerm;57448;51.490;5.436;2024-03-25T02:57:42;40.47;35.86;45.47;;
70077;Laerm;57448;51.490;5.436;2024-03-25T03:00:08;41.90;37.54;49.04;;
70077;Laerm;57448;51.490;5.436;2024-03-25T03:02:34;41.54;36.65;50.92;;
70077;Laerm;57448;51.490;5.436;2024-03-25T03:04:59;42.44;37.91;49.21;;
70077;Laerm;57448;51.490;5.436;2024-03-25T03:07:26;42.52;38.62;47.61;;
70077;Laerm;57448;51.490;5.436;2024-03-25T03:09:51;42.55;39.18;48.22;;
70077;Laerm;57448;51.490;5.436;2024-03-25T03:12:16;41.10;37.34;46.19;;
70077;Laerm;57448;51.490;5.436;2024-03-25T03:14:42;41.62;37.20;45.51;;
70077;Laerm;57448;51.490;5.436;2024-03-25T03:17:07;42.48;38.24;46.24;;
70077;Laerm;57448;51.490;5.436;2024-03-25T03:19:33;42.67;37.54;48.64;;
70077;Laerm;57448;51.490;5.436;2024-03-25T03:21:58;44.01;39.22;50.38;;
70077;Laerm;57448;51.490;5.436;2024-03-25T03:24:23;43.67;38.43;51.57;;
70077;Laerm;57448;51.490;5.436;2024-03-25T03:26:49;43.01;39.28;47.81;;
70077;Laerm;57448;51.490;5.436;2024-03-25T03:29:14;43.85;39.74;50.45;;
70077;Laerm;57448;51.490;5.436;2024-03-25T03:31:40;43.55;39.62;51.60;;
70077;Laerm;57448;51.490;5.436;2024-03-25T03:34:05;44.05;39.58;51.52;;
70077;Laerm;57448;51.490;5.436;2024-03-25T03:36:31;43.22;39.17;47.35;;
70077;Laerm;57448;51.490;5.436;2024-03-25T03:38:56;44.36;40.54;48.59;;
70077;Laerm;57448;51.490;5.436;2024-03-25T03:41:22;44.60;40.66;48.47;;
70077;Laerm;57448;51.490;5.436;2024-03-25T03:43:47;43.06;39.27;47.47;;
70077;Laerm;57448;51.490;5.436;2024-03-25T03:46:12;43.91;40.11;48.55;;
70077;Laerm;57448;51.490;5.436;2024-03-25T03:48:38;45.14;39.71;51.12;;
70077;Laerm;57448;51.490;5.436;2024-03-25T03:51:07;44.84;41.61;48.78;;
70077;Laerm;57448;51.490;5.436;2024-03-25T03:53:33;44.60;41.13;50.05;;
70077;Laerm;57448;51.490;5.436;2024-03-25T03:55:59;44.43;40.04;50.02;;
70077;Laerm;57448;51.490;5.436;2024-03-25T03:58:26;44.89;40.06;50.44;;
70077;Laerm;57448;51.490;5.436;2024-03-25T04:00:52;44.95;42.00;48.75;;
70077;Laerm;57448;51.490;5.436;2024-03-25T04:03:17;44.74;41.53;48.86;;
70077;Laerm;57448;51.490;5.436;2024-03-25T04:05:43;44.82;40.86;50.30;;
70077;Laerm;57448;51.490;5.436;2024-03-25T04:08:08;46.15;42.81;50.17;;
70077;Laerm;57448;51.490;5.436;2024-03-25T04:10:34;45.20;42.05;50.43;;
70077;Laerm;57448;51.490;5.436;2024-03-25T04:13:00;45.94;43.05;50.86;;
70077;Laerm;57448;51.490;5.436;2024-03-25T04:15:26;45.61;42.66;50.57;;
70077;Laerm;57448;51.490;5.436;2024-03-25T04:17:51;46.10;42.46;50.30;;
70077;Laerm;57448;51.490;5.436;2024-03-25T04:20:17;45.77;42.71;51.13;;
70077;Laerm;57448;51.490;5.436;2024-03-25T04:22:42;46.55;43.68;52.13;;
70077;Laerm;57448;51.490;5.436;2024-03-25T04:25:11;47.97;44.67;52.43;;
70077;Laerm;57448;51.490;5.436;2024-03-25T04:27:43;47.40;44.06;55.80;;
70077;Laerm;57448;51.490;5.436;2024-03-25T04:30:09;47.94;44.60;53.14;;
70077;Laerm;57448;51.490;5.436;2024-03-25T04:32:35;48.52;45.20;53.24;;
70077;Laerm;57448;51.490;5.436;2024-03-25T04:35:01;50.58;44.51;64.78;;
70077;Laerm;57448;51.490;5.436;2024-03-25T04:37:27;56.48;44.84;68.73;;
70077;Laerm;57448;51.490;5.436;2024-03-25T04:39:53;56.61;45.73;68.37;;
70077;Laerm;57448;51.490;5.436;2024-03-25T04:42:18;56.75;46.04;67.48;;
70077;Laerm;57448;51.490;5.436;2024-03-25T04:44:44;56.76;44.95;69.94;;
70077;Laerm;57448;51.490;5.436;2024-03-25T04:47:09;55.98;46.59;68.88;;
70077;Laerm;57448;51.490;5.436;2024-03-25T04:49:34;57.61;45.21;70.83;;
70077;Laerm;57448;51.490;5.436;2024-03-25T04:52:00;56.06;46.44;70.21;;
70077;Laerm;57448;51.490;5.436;2024-03-25T04:54:25;57.93;46.60;70.44;;
70077;Laerm;57448;51.490;5.436;2024-03-25T04:56:51;61.64;46.30;72.30;;
70077;Laerm;57448;51.490;5.436;2024-03-25T04:59:16;61.64;46.00;71.89;;
70077;Laerm;57448;51.490;5.436;2024-03-25T05:01:41;53.19;45.67;66.61;;
70077;Laerm;57448;51.490;5.436;2024-03-25T05:04:07;52.82;46.08;66.09;;
70077;Laerm;57448;51.490;5.436;2024-03-25T05:06:34;57.41;46.30;68.95;;
70077;Laerm;57448;51.490;5.436;2024-03-25T05:09:00;56.94;45.63;69.56;;
70077;Laerm;57448;51.490;5.436;2024-03-25T05:11:25;50.82;46.31;64.44;;
70077;Laerm;57448;51.490;5.436;2024-03-25T05:13:51;56.43;46.20;74.09;;
70077;Laerm;57448;51.490;5.436;2024-03-25T05:16:16;56.76;46.80;79.37;;
70077;Laerm;57448;51.490;5.436;2024-03-25T05:18:41;49.89;45.87;61.85;;
70077;Laerm;57448;51.490;5.436;2024-03-25T05:21:07;53.13;46.29;66.50;;
70077;Laerm;57448;51.490;5.436;2024-03-25T05:23:32;55.84;46.26;71.51;;
70077;Laerm;57448;51.490;5.436;2024-03-25T05:25:57;56.88;46.75;69.94;;
70077;Laerm;57448;51.490;5.436;2024-03-25T05:28:23;52.05;47.39;64.91;;
70077;Laerm;57448;51.490;5.436;2024-03-25T05:30:48;53.10;47.15;64.03;;
70077;Laerm;57448;51.490;5.436;2024-03-25T05:33:14;54.52;46.67;66.55;;
70077;Laerm;57448;51.490;5.436;2024-03-25T05:35:40;52.73;47.10;65.76;;
70077;Laerm;57448;51.490;5.436;2024-03-25T05:38:06;50.81;46.84;61.83;;
70077;Laerm;57448;51.490;5.436;2024-03-25T05:40:32;49.67;47.26;58.17;;
70077;Laerm;57448;51.490;5.436;2024-03-25T05:42:57;49.51;47.35;55.10;;
70077;Laerm;57448;51.490;5.436;2024-03-25T05:45:23;50.05;47.49;63.59;;
70077;Laerm;57448;51.490;5.436;2024-03-25T05:47:50;52.35;47.35;71.02;;
70077;Laerm;57448;51.490;5.436;2024-03-25T05:50:15;49.95;46.81;59.53;;
70077;Laerm;57448;51.490;5.436;2024-03-25T05:52:41;50.64;46.82;60.07;;
70077;Laerm;57448;51.490;5.436;2024-03-25T05:55:07;50.90;45.70;61.21;;
70077;Laerm;57448;51.490;5.436;2024-03-25T05:57:32;52.98;45.91;67.73;;
70077;Laerm;57448;51.490;5.436;2024-03-25T05:59:57;51.31;46.00;61.33;;
70077;Laerm;57448;51.490;5.436;2024-03-25T06:02:23;49.51;47.36;58.26;;
70077;Laerm;57448;51.490;5.436;2024-03-25T06:04:49;48.90;46.98;54.62;;
70077;Laerm;57448;51.490;5.436;2024-03-25T06:07:14;51.27;46.14;69.26;;
70077;Laerm;57448;51.490;5.436;2024-03-25T06:09:40;52.12;45.65;72.64;;
70077;Laerm;57448;51.490;5.436;2024-03-25T06:12:05;51.53;45.76;66.72;;
70077;Laerm;57448;51.490;5.436;2024-03-25T06:14:31;50.99;46.34;67.01;;
70077;Laerm;57448;51.490;5.436;2024-03-25T06:16:56;49.19;45.66;62.14;;
70077;Laerm;57448;51.490;5.436;2024-03-25T06:19:22;48.73;44.80;54.74;;
70077;Laerm;57448;51.490;5.436;2024-03-25T06:21:47;51.92;45.22;67.17;;
70077;Laerm;57448;51.490;5.436;2024-03-25T06:24:13;47.89;44.17;64.03;;
70077;Laerm;57448;51.490;5.436;2024-03-25T06:26:39;46.92;44.12;57.64;;
70077;Laerm;57448;51.490;5.436;2024-03-25T06:29:04;47.45;43.44;61.10;;
70077;Laerm;57448;51.490;5.436;2024-03-25T06:31:30;53.12;43.57;69.33;;
70077;Laerm;57448;51.490;5.436;2024-03-25T06:34:14;49.62;43.03;67.66;;
70077;Laerm;57448;51.490;5.436;2024-03-25T06:36:39;46.10;43.43;60.07;;
70077;Laerm;57448;51.490;5.436;2024-03-25T06:39:05;45.22;42.92;51.23;;
70077;Laerm;57448;51.490;5.436;2024-03-25T06:41:31;45.91;43.68;52.04;;
70077;Laerm;57448;51.490;5.436;2024-03-25T06:43:56;46.87;42.99;54.97;;
70077;Laerm;57448;51.490;5.436;2024-03-25T06:46:21;47.01;43.46;55.34;;
70077;Laerm;57448;51.490;5.436;2024-03-25T06:48:47;45.00;42.75;52.14;;
70077;Laerm;57448;51.490;5.436;2024-03-25T06:51:12;46.99;44.34;53.55;;
70077;Laerm;57448;51.490;5.436;2024-03-25T06:53:38;46.80;43.72;54.91;;
70077;Laerm;57448;51.490;5.436;2024-03-25T06:56:03;46.96;43.78;59.01;;
70077;Laerm;57448;51.490;5.436;2024-03-25T06:58:28;46.14;43.37;55.58;;
70077;Laerm;57448;51.490;5.436;2024-03-25T07:00:55;47.72;42.35;66.91;;
70077;Laerm;57448;51.490;5.436;2024-03-25T07:03:22;49.68;41.54;62.75;;
70077;Laerm;57448;51.490;5.436;2024-03-25T07:05:48;48.59;41.02;64.73;;
70077;Laerm;57448;51.490;5.436;2024-03-25T07:08:15;43.05;40.43;51.39;;
70077;Laerm;57448;51.490;5.436;2024-03-25T07:10:43;48.48;40.17;63.35;;
70077;Laerm;57448;51.490;5.436;2024-03-25T07:13:09;50.09;39.86;65.89;;
70077;Laerm;57448;51.490;5.436;2024-03-25T07:15:34;44.82;40.66;55.38;;
70077;Laerm;57448;51.490;5.436;2024-03-25T07:17:59;52.27;40.60;67.26;;
70077;Laerm;57448;51.490;5.436;2024-03-25T07:20:25;48.79;40.44;68.86;;
70077;Laerm;57448;51.490;5.436;2024-03-25T07:22:51;44.94;40.60;62.47;;
70077;Laerm;57448;51.490;5.436;2024-03-25T07:25:17;58.59;41.24;72.15;;
70077;Laerm;57448;51.490;5.436;2024-03-25T07:27:42;55.16;41.13;69.02;;
70077;Laerm;57448;51.490;5.436;2024-03-25T07:30:08;56.92;53.93;61.32;;
70077;Laerm;57448;51.490;5.436;2024-03-25T07:32:34;51.26;41.26;58.89;;
70077;Laerm;57448;51.490;5.436;2024-03-25T07:35:00;58.12;41.86;62.11;;
70077;Laerm;57448;51.490;5.436;2024-03-25T07:37:25;57.11;42.01;63.29;;
70077;Laerm;57448;51.490;5.436;2024-03-25T07:39:50;56.12;42.67;61.95;;
70077;Laerm;57448;51.490;5.436;2024-03-25T07:42:16;49.73;42.47;62.57;;
70077;Laerm;57448;51.490;5.436;2024-03-25T07:44:42;51.86;42.64;65.76;;
70077;Laerm;57448;51.490;5.436;2024-03-25T07:47:07;45.32;42.01;58.57;;
70077;Laerm;57448;51.490;5.436;2024-03-25T07:49:33;57.67;42.55;69.70;;
70077;Laerm;57448;51.490;5.436;2024-03-25T07:51:59;55.81;43.16;63.05;;
70077;Laerm;57448;51.490;5.436;2024-03-25T07:54:25;55.81;42.51;61.50;;
70077;Laerm;57448;51.490;5.436;2024-03-25T07:56:51;56.76;42.88;66.29;;
70077;Laerm;57448;51.490;5.436;2024-03-25T07:59:17;56.94;42.09;66.10;;
70077;Laerm;57448;51.490;5.436;2024-03-25T08:01:42;57.36;41.46;65.46;;
70077;Laerm;57448;51.490;5.436;2024-03-25T08:04:08;58.58;41.96;63.83;;
70077;Laerm;57448;51.490;5.436;2024-03-25T08:06:34;59.15;40.31;71.69;;
70077;Laerm;57448;51.490;5.436;2024-03-25T08:08:59;56.39;41.32;68.73;;
70077;Laerm;57448;51.490;5.436;2024-03-25T08:11:24;46.95;40.94;58.98;;
70077;Laerm;57448;51.490;5.436;2024-03-25T08:13:50;60.63;42.88;69.55;;
70077;Laerm;57448;51.490;5.436;2024-03-25T08:16:15;59.14;42.74;66.94;;
70077;Laerm;57448;51.490;5.436;2024-03-25T08:18:40;49.97;41.53;61.33;;
70077;Laerm;57448;51.490;5.436;2024-03-25T08:21:06;58.92;42.63;64.63;;
70077;Laerm;57448;51.490;5.436;2024-03-25T08:23:31;59.94;44.63;68.32;;
70077;Laerm;57448;51.490;5.436;2024-03-25T08:25:57;53.22;39.97;63.32;;
70077;Laerm;57448;51.490;5.436;2024-03-25T08:28:22;57.66;42.56;65.03;;
70077;Laerm;57448;51.490;5.436;2024-03-25T08:30:48;59.68;43.78;68.33;;
70077;Laerm;57448;51.490;5.436;2024-03-25T08:33:13;58.77;39.65;66.04;;
70077;Laerm;57448;51.490;5.436;2024-03-25T08:35:38;58.71;39.77;63.82;;
70077;Laerm;57448;51.490;5.436;2024-03-25T08:38:04;58.77;41.47;64.89;;
70077;Laerm;57448;51.490;5.436;2024-03-25T08:40:29;56.63;40.38;64.41;;
70077;Laerm;57448;51.490;5.436;2024-03-25T08:42:55;56.82;38.91;64.22;;
70077;Laerm;57448;51.490;5.436;2024-03-25T08:45:20;56.72;41.65;63.39;;
70077;Laerm;57448;51.490;5.436;2024-03-25T08:47:45;57.04;42.81;64.71;;
70077;Laerm;57448;51.490;5.436;2024-03-25T08:50:11;55.53;41.93;60.67;;
70077;Laerm;57448;51.490;5.436;2024-03-25T08:52:36;57.00;43.72;63.51;;
70077;Laerm;57448;51.490;5.436;2024-03-25T08:55:01;57.92;41.24;67.72;;
70077;Laerm;57448;51.490;5.436;2024-03-25T08:57:27;51.90;40.97;57.95;;
70077;Laerm;57448;51.490;5.436;2024-03-25T08:59:52;57.36;41.83;62.08;;
70077;Laerm;57448;51.490;5.436;2024-03-25T09:02:18;53.67;41.36;62.62;;
70077;Laerm;57448;51.490;5.436;2024-03-25T09:04:43;49.55;41.66;62.89;;
70077;Laerm;57448;51.490;5.436;2024-03-25T09:07:09;53.08;39.35;65.74;;
70077;Laerm;57448;51.490;5.436;2024-03-25T09:09:34;44.69;40.53;56.49;;
70077;Laerm;57448;51.490;5.436;2024-03-25T09:12:18;44.37;40.76;50.10;;
70077;Laerm;57448;51.490;5.436;2024-03-25T09:14:43;49.76;39.41;69.76;;
70077;Laerm;57448;51.490;5.436;2024-03-25T09:17:09;55.46;38.30;67.39;;
70077;Laerm;57448;51.490;5.436;2024-03-25T09:19:34;49.28;38.93;67.67;;
70077;Laerm;57448;51.490;5.436;2024-03-25T09:21:59;45.52;37.70;64.11;;
70077;Laerm;57448;51.490;5.436;2024-03-25T09:24:25;50.96;39.17;68.94;;
70077;Laerm;57448;51.490;5.436;2024-03-25T09:26:50;52.52;39.86;67.27;;
70077;Laerm;57448;51.490;5.436;2024-03-25T09:29:15;43.17;36.63;51.85;;
70077;Laerm;57448;51.490;5.436;2024-03-25T09:31:41;42.48;36.66;53.25;;
70077;Laerm;57448;51.490;5.436;2024-03-25T09:34:06;44.64;36.08;63.12;;
70077;Laerm;57448;51.490;5.436;2024-03-25T09:36:31;46.73;35.29;64.53;;
70077;Laerm;57448;51.490;5.436;2024-03-25T09:38:57;47.25;38.77;64.66;;
70077;Laerm;57448;51.490;5.436;2024-03-25T09:41:22;43.17;36.81;53.91;;
70077;Laerm;57448;51.490;5.436;2024-03-25T09:43:48;45.81;36.01;66.68;;
70077;Laerm;57448;51.490;5.436;2024-03-25T09:46:17;49.89;35.41;66.22;;
70077;Laerm;57448;51.490;5.436;2024-03-25T09:48:42;53.13;35.87;68.71;;
70077;Laerm;57448;51.490;5.436;2024-03-25T09:51:09;54.58;39.51;66.60;;
70077;Laerm;57448;51.490;5.436;2024-03-25T09:53:34;52.23;40.03;69.72;;
70077;Laerm;57448;51.490;5.436;2024-03-25T09:56:00;51.46;37.54;66.45;;
70077;Laerm;57448;51.490;5.436;2024-03-25T09:58:25;53.93;37.69;69.59;;
70077;Laerm;57448;51.490;5.436;2024-03-25T10:00:51;47.27;36.97;65.52;;
70077;Laerm;57448;51.490;5.436;2024-03-25T10:03:17;47.71;39.43;60.80;;
70077;Laerm;57448;51.490;5.436;2024-03-25T10:05:42;43.59;35.13;50.58;;
70077;Laerm;57448;51.490;5.436;2024-03-25T10:08:07;48.09;37.89;58.17;;
70077;Laerm;57448;51.490;5.436;2024-03-25T10:10:33;51.10;38.23;67.16;;
70077;Laerm;57448;51.490;5.436;2024-03-25T10:12:59;46.51;37.34;69.54;;
70077;Laerm;57448;51.490;5.436;2024-03-25T10:15:25;46.47;38.69;63.41;;
70077;Laerm;57448;51.490;5.436;2024-03-25T10:17:51;46.36;38.70;57.13;;
70077;Laerm;57448;51.490;5.436;2024-03-25T10:20:17;48.85;38.11;59.70;;
70077;Laerm;57448;51.490;5.436;2024-03-25T10:22:43;53.96;38.10;67.36;;
70077;Laerm;57448;51.490;5.436;2024-03-25T10:27:55;48.18;37.35;58.89;;
70077;Laerm;57448;51.490;5.436;2024-03-25T10:30:21;46.59;38.13;56.64;;
70077;Laerm;57448;51.490;5.436;2024-03-25T10:32:56;49.15;37.64;60.52;;
70077;Laerm;57448;51.490;5.436;2024-03-25T10:35:22;49.00;39.11;62.90;;
70077;Laerm;57448;51.490;5.436;2024-03-25T10:37:48;44.84;37.13;56.45;;
70077;Laerm;57448;51.490;5.436;2024-03-25T10:40:14;60.34;38.42;70.40;;
70077;Laerm;57448;51.490;5.436;2024-03-25T10:42:39;58.29;38.56;69.93;;
70077;Laerm;57448;51.490;5.436;2024-03-25T10:45:07;45.85;38.51;63.50;;
70077;Laerm;57448;51.490;5.436;2024-03-25T10:47:33;43.27;36.70;52.01;;
70077;Laerm;57448;51.490;5.436;2024-03-25T10:49:59;43.30;38.23;50.75;;
70077;Laerm;57448;51.490;5.436;2024-03-25T10:52:29;50.59;37.09;63.71;;
70077;Laerm;57448;51.490;5.436;2024-03-25T10:54:55;50.03;36.07;64.84;;
70077;Laerm;57448;51.490;5.436;2024-03-25T10:57:21;46.99;35.15;63.94;;
70077;Laerm;57448;51.490;5.436;2024-03-25T10:59:47;43.92;35.76;53.22;;
70077;Laerm;57448;51.490;5.436;2024-03-25T11:02:14;44.32;35.84;60.69;;
70077;Laerm;57448;51.490;5.436;2024-03-25T11:04:39;43.68;37.85;53.19;;
70077;Laerm;57448;51.490;5.436;2024-03-25T11:07:15;45.31;37.41;58.88;;
70077;Laerm;57448;51.490;5.436;2024-03-25T11:09:41;51.38;37.81;64.72;;
70077;Laerm;57448;51.490;5.436;2024-03-25T11:12:09;43.98;37.10;60.62;;
70077;Laerm;57448;51.490;5.436;2024-03-25T11:14:35;43.91;37.95;55.57;;
70077;Laerm;57448;51.490;5.436;2024-03-25T11:17:01;52.78;38.72;76.59;;
70077;Laerm;57448;51.490;5.436;2024-03-25T11:19:27;47.79;38.17;66.89;;
70077;Laerm;57448;51.490;5.436;2024-03-25T11:21:53;46.84;36.95;59.29;;
70077;Laerm;57448;51.490;5.436;2024-03-25T11:24:28;46.87;37.49;62.10;;
70077;Laerm;57448;51.490;5.436;2024-03-25T11:26:54;43.95;35.83;54.38;;
70077;Laerm;57448;51.490;5.436;2024-03-25T11:29:19;47.97;35.79;59.98;;
70077;Laerm;57448;51.490;5.436;2024-03-25T11:31:45;46.43;36.73;70.62;;
70077;Laerm;57448;51.490;5.436;2024-03-25T11:34:10;44.71;36.38;59.18;;
70077;Laerm;57448;51.490;5.436;2024-03-25T11:36:36;40.50;36.37;52.16;;
70077;Laerm;57448;51.490;5.436;2024-03-25T11:39:01;47.71;36.53;63.77;;
70077;Laerm;57448;51.490;5.436;2024-03-25T11:41:29;48.26;34.98;62.60;;
70077;Laerm;57448;51.490;5.436;2024-03-25T11:43:55;50.93;35.24;65.04;;
70077;Laerm;57448;51.490;5.436;2024-03-25T11:46:24;48.46;34.20;62.93;;
70077;Laerm;57448;51.490;5.436;2024-03-25T11:48:49;44.79;34.81;59.38;;
70077;Laerm;57448;51.490;5.436;2024-03-25T11:51:18;43.31;35.33;56.44;;
70077;Laerm;57448;51.490;5.436;2024-03-25T11:53:44;41.02;35.71;60.76;;
70077;Laerm;57448;51.490;5.436;2024-03-25T11:56:10;43.98;36.87;59.21;;
70077;Laerm;57448;51.490;5.436;2024-03-25T11:58:36;43.34;36.47;58.60;;
70077;Laerm;57448;51.490;5.436;2024-03-25T12:01:02;55.09;36.24;79.88;;
70077;Laerm;57448;51.490;5.436;2024-03-25T12:03:27;48.85;35.80;63.71;;
70077;Laerm;57448;51.490;5.436;2024-03-25T12:05:53;46.17;34.85;63.82;;
70077;Laerm;57448;51.490;5.436;2024-03-25T12:08:18;47.86;35.04;62.47;;
70077;Laerm;57448;51.490;5.436;2024-03-25T12:10:44;45.97;35.86;57.34;;
70077;Laerm;57448;51.490;5.436;2024-03-25T12:13:27;45.45;35.67;57.09;;
70077;Laerm;57448;51.490;5.436;2024-03-25T12:15:53;49.78;36.08;70.86;;
70077;Laerm;57448;51.490;5.436;2024-03-25T12:18:18;44.86;36.82;51.73;;
70077;Laerm;57448;51.490;5.436;2024-03-25T12:20:47;46.83;37.54;61.42;;
70077;Laerm;57448;51.490;5.436;2024-03-25T12:23:13;50.64;37.28;76.15;;
70077;Laerm;57448;51.490;5.436;2024-03-25T12:25:38;51.60;36.47;65.87;;
70077;Laerm;57448;51.490;5.436;2024-03-25T12:28:10;43.11;35.46;58.00;;
70077;Laerm;57448;51.490;5.436;2024-03-25T12:30:48;41.71;36.30;52.99;;
70077;Laerm;57448;51.490;5.436;2024-03-25T12:33:13;40.57;36.97;49.96;;
70077;Laerm;57448;51.490;5.436;2024-03-25T12:35:39;53.02;37.76;68.92;;
70077;Laerm;57448;51.490;5.436;2024-03-25T12:38:04;40.38;36.16;51.27;;
70077;Laerm;57448;51.490;5.436;2024-03-25T12:40:31;50.74;37.23;64.12;;
70077;Laerm;57448;51.490;5.436;2024-03-25T12:42:56;42.31;35.38;57.26;;
70077;Laerm;57448;51.490;5.436;2024-03-25T12:45:22;51.43;35.00;66.98;;
70077;Laerm;57448;51.490;5.436;2024-03-25T12:47:48;39.87;35.05;51.11;;
70077;Laerm;57448;51.490;5.436;2024-03-25T12:50:13;40.33;35.76;50.19;;
70077;Laerm;57448;51.490;5.436;2024-03-25T12:52:39;38.24;35.36;46.37;;
70077;Laerm;57448;51.490;5.436;2024-03-25T12:55:04;43.19;34.57;67.65;;
70077;Laerm;57448;51.490;5.436;2024-03-25T12:57:29;38.41;34.65;47.15;;
70077;Laerm;57448;51.490;5.436;2024-03-25T12:59:55;38.49;34.31;46.99;;
70077;Laerm;57448;51.490;5.436;2024-03-25T13:02:20;56.31;34.45;70.20;;
70077;Laerm;57448;51.490;5.436;2024-03-25T13:04:45;51.79;34.21;67.39;;
70077;Laerm;57448;51.490;5.436;2024-03-25T13:07:11;38.60;34.65;50.77;;
70077;Laerm;57448;51.490;5.436;2024-03-25T13:09:36;40.49;35.83;50.95;;
70077;Laerm;57448;51.490;5.436;2024-03-25T13:12:02;43.70;37.02;58.87;;
70077;Laerm;57448;51.490;5.436;2024-03-25T13:14:27;48.30;35.95;63.88;;
70077;Laerm;57448;51.490;5.436;2024-03-25T13:16:52;49.66;35.35;69.23;;
70077;Laerm;57448;51.490;5.436;2024-03-25T13:19:18;45.93;35.61;65.32;;
70077;Laerm;57448;51.490;5.436;2024-03-25T13:21:43;43.60;36.57;57.43;;
70077;Laerm;57448;51.490;5.436;2024-03-25T13:24:09;45.07;38.08;58.36;;
70077;Laerm;57448;51.490;5.436;2024-03-25T13:26:34;47.46;37.83;58.86;;
70077;Laerm;57448;51.490;5.436;2024-03-25T13:29:00;42.30;38.03;56.32;;
70077;Laerm;57448;51.490;5.436;2024-03-25T13:31:25;41.66;37.09;50.54;;
70077;Laerm;57448;51.490;5.436;2024-03-25T13:33:50;42.01;37.47;54.13;;
70077;Laerm;57448;51.490;5.436;2024-03-25T13:36:16;46.18;38.42;69.24;;
70077;Laerm;57448;51.490;5.436;2024-03-25T13:38:42;53.10;38.54;66.28;;